createdAt,value
2022-11-13T00:02:20.357Z,965.84
2022-11-13T00:04:46.651Z,965.98
2022-11-13T00:07:13.021Z,965.86
2022-11-13T00:09:39.322Z,965.82
2022-11-13T00:12:05.677Z,965.89
2022-11-13T00:14:32.012Z,965.83
2022-11-13T00:16:58.366Z,965.85
2022-11-13T00:19:24.743Z,965.85
2022-11-13T00:21:51.139Z,965.75
2022-11-13T00:24:17.436Z,965.71
2022-11-13T00:26:43.791Z,965.73
2022-11-13T00:29:10.082Z,965.83
2022-11-13T00:31:36.430Z,965.71
2022-11-13T00:34:19.689Z,965.68
2022-11-13T00:36:29.130Z,965.70
2022-11-13T00:38:55.504Z,965.69
2022-11-13T00:41:21.868Z,965.63
2022-11-13T00:43:48.211Z,965.70
2022-11-13T00:46:14.545Z,965.65
2022-11-13T00:48:40.877Z,965.59
2022-11-13T00:51:07.329Z,965.58
2022-11-13T00:53:33.606Z,965.64
2022-11-13T00:55:59.923Z,965.65
2022-11-13T00:58:26.640Z,965.69
2022-11-13T01:00:52.595Z,965.71
2022-11-13T01:03:18.984Z,965.64
2022-11-13T01:05:45.276Z,965.63
2022-11-13T01:08:11.598Z,965.68
2022-11-13T01:10:37.959Z,965.64
2022-11-13T01:13:04.278Z,965.55
2022-11-13T01:15:30.628Z,965.62
2022-11-13T01:17:56.974Z,965.59
2022-11-13T01:20:23.290Z,965.60
2022-11-13T01:22:49.739Z,965.54
2022-11-13T01:25:16.004Z,965.54
2022-11-13T01:27:42.399Z,965.53
2022-11-13T01:30:08.670Z,965.55
2022-11-13T01:32:35.000Z,965.55
2022-11-13T01:35:01.339Z,965.55
2022-11-13T01:37:28.111Z,965.55
2022-11-13T01:39:54.445Z,965.52
2022-11-13T01:42:20.790Z,965.45
2022-11-13T01:44:47.163Z,965.41
2022-11-13T01:47:13.523Z,965.42
2022-11-13T01:49:39.898Z,965.42
2022-11-13T01:52:06.220Z,965.44
2022-11-13T01:54:32.538Z,965.36
2022-11-13T01:56:58.887Z,965.35
2022-11-13T01:59:25.229Z,965.35
2022-11-13T02:01:51.605Z,965.37
2022-11-13T02:04:17.922Z,965.32
2022-11-13T02:06:44.336Z,965.37
2022-11-13T02:09:10.593Z,965.37
2022-11-13T02:11:36.962Z,965.42
2022-11-13T02:14:03.299Z,965.41
2022-11-13T02:16:29.648Z,965.42
2022-11-13T02:18:55.963Z,965.42
2022-11-13T02:21:22.302Z,965.36
2022-11-13T02:23:48.644Z,965.38
2022-11-13T02:26:14.989Z,965.33
2022-11-13T02:28:41.305Z,965.32
2022-11-13T02:31:07.635Z,965.37
2022-11-13T02:33:33.997Z,965.34
2022-11-13T02:36:00.351Z,965.32
2022-11-13T02:38:27.012Z,965.31
2022-11-13T02:40:53.036Z,965.32
2022-11-13T02:43:19.356Z,965.25
2022-11-13T02:45:45.706Z,965.24
2022-11-13T02:48:12.081Z,965.31
2022-11-13T02:50:38.399Z,965.28
2022-11-13T02:53:04.736Z,965.27
2022-11-13T02:55:31.110Z,965.24
2022-11-13T02:57:57.452Z,965.25
2022-11-13T03:00:23.818Z,965.31
2022-11-13T03:02:50.111Z,965.34
2022-11-13T03:05:16.478Z,965.33
2022-11-13T03:07:42.816Z,965.41
2022-11-13T03:10:09.141Z,965.41
2022-11-13T03:12:35.484Z,965.47
2022-11-13T03:15:01.822Z,965.42
2022-11-13T03:17:28.141Z,965.37
2022-11-13T03:19:54.488Z,965.42
2022-11-13T03:22:20.862Z,965.43
2022-11-13T03:24:47.233Z,965.46
2022-11-13T03:27:13.509Z,965.40
2022-11-13T03:29:39.858Z,965.45
2022-11-13T03:32:06.176Z,965.44
2022-11-13T03:34:32.605Z,965.43
2022-11-13T03:36:58.937Z,965.42
2022-11-13T03:39:25.283Z,965.49
2022-11-13T03:41:51.637Z,965.46
2022-11-13T03:44:17.960Z,965.46
2022-11-13T03:46:44.276Z,965.46
2022-11-13T03:49:10.635Z,965.45
2022-11-13T03:51:37.006Z,965.44
2022-11-13T03:54:03.336Z,965.48
2022-11-13T03:56:29.661Z,965.47
2022-11-13T03:58:55.982Z,965.44
2022-11-13T04:01:22.377Z,965.48
2022-11-13T04:03:48.625Z,965.43
2022-11-13T04:06:14.963Z,965.56
2022-11-13T04:08:41.352Z,965.53
2022-11-13T04:11:07.669Z,965.44
2022-11-13T04:13:34.014Z,965.50
2022-11-13T04:16:00.334Z,965.47
2022-11-13T04:18:26.940Z,965.42
2022-11-13T04:20:53.072Z,965.43
2022-11-13T04:23:19.393Z,965.44
2022-11-13T04:25:45.743Z,965.38
2022-11-13T04:28:12.081Z,965.46
2022-11-13T04:30:38.409Z,965.37
2022-11-13T04:33:04.750Z,965.40
2022-11-13T04:35:31.082Z,965.38
2022-11-13T04:37:57.444Z,965.40
2022-11-13T04:40:23.764Z,965.51
2022-11-13T04:42:50.120Z,965.44
2022-11-13T04:45:16.494Z,965.49
2022-11-13T04:47:42.790Z,965.48
2022-11-13T04:50:09.156Z,965.37
2022-11-13T04:52:35.476Z,965.35
2022-11-13T04:55:01.795Z,965.40
2022-11-13T04:57:28.137Z,965.38
2022-11-13T04:59:54.481Z,965.39
2022-11-13T05:02:20.831Z,965.58
2022-11-13T05:04:47.175Z,965.50
2022-11-13T05:07:13.606Z,965.44
2022-11-13T05:09:39.846Z,965.41
2022-11-13T05:12:06.201Z,965.45
2022-11-13T05:14:32.525Z,965.46
2022-11-13T05:16:58.853Z,965.51
2022-11-13T05:19:25.231Z,965.53
2022-11-13T05:21:51.544Z,965.47
2022-11-13T05:24:17.870Z,965.46
2022-11-13T05:26:44.229Z,965.46
2022-11-13T05:29:10.553Z,965.57
2022-11-13T05:31:36.893Z,965.61
2022-11-13T05:34:05.958Z,965.53
2022-11-13T05:36:29.624Z,965.49
2022-11-13T05:38:55.943Z,965.50
2022-11-13T05:41:22.270Z,965.61
2022-11-13T05:43:48.660Z,965.61
2022-11-13T05:46:15.032Z,965.69
2022-11-13T05:48:41.318Z,965.66
2022-11-13T05:51:07.659Z,965.70
2022-11-13T05:53:34.010Z,965.79
2022-11-13T05:56:00.344Z,965.73
2022-11-13T05:58:26.966Z,965.71
2022-11-13T06:00:53.016Z,965.79
2022-11-13T06:03:19.361Z,965.75
2022-11-13T06:05:45.676Z,965.81
2022-11-13T06:08:12.013Z,965.79
2022-11-13T06:10:38.335Z,965.73
2022-11-13T06:13:04.695Z,965.77
2022-11-13T06:15:31.023Z,965.80
2022-11-13T06:17:57.382Z,965.80
2022-11-13T06:20:23.731Z,965.87
2022-11-13T06:22:50.073Z,965.76
2022-11-13T06:25:16.393Z,965.79
2022-11-13T06:27:42.775Z,965.83
2022-11-13T06:30:09.109Z,965.84
2022-11-13T06:32:35.447Z,965.88
2022-11-13T06:35:01.819Z,965.88
2022-11-13T06:37:31.413Z,965.86
2022-11-13T06:39:54.516Z,965.92
2022-11-13T06:42:20.881Z,965.92
2022-11-13T06:44:47.206Z,965.90
2022-11-13T06:47:13.534Z,965.84
2022-11-13T06:49:39.862Z,965.90
2022-11-13T06:52:06.181Z,965.88
2022-11-13T06:54:32.511Z,965.84
2022-11-13T06:56:58.907Z,965.90
2022-11-13T06:59:25.203Z,965.74
2022-11-13T07:01:51.552Z,965.82
2022-11-13T07:04:17.874Z,965.74
2022-11-13T07:06:44.321Z,965.83
2022-11-13T07:09:10.578Z,965.78
2022-11-13T07:11:36.928Z,965.80
2022-11-13T07:14:03.369Z,965.80
2022-11-13T07:16:44.059Z,965.81
2022-11-13T07:18:56.064Z,965.84
2022-11-13T07:21:22.464Z,965.91
2022-11-13T07:23:48.784Z,965.89
2022-11-13T07:26:15.117Z,965.87
2022-11-13T07:28:41.473Z,965.87
2022-11-13T07:31:07.853Z,965.87
2022-11-13T07:33:34.188Z,965.80
2022-11-13T07:36:00.549Z,965.81
2022-11-13T07:38:27.331Z,965.81
2022-11-13T07:40:53.264Z,965.80
2022-11-13T07:43:19.645Z,965.87
2022-11-13T07:45:45.970Z,965.88
2022-11-13T07:48:12.292Z,965.92
2022-11-13T07:50:38.631Z,965.91
2022-11-13T07:53:05.015Z,965.90
2022-11-13T07:55:31.374Z,965.88
2022-11-13T07:57:57.715Z,965.89
2022-11-13T08:00:24.054Z,965.92
2022-11-13T08:02:50.374Z,965.89
2022-11-13T08:05:16.729Z,965.91
2022-11-13T08:07:47.221Z,965.89
2022-11-13T08:10:09.410Z,965.91
2022-11-13T08:12:35.730Z,965.91
2022-11-13T08:15:02.069Z,965.86
2022-11-13T08:17:28.397Z,965.82
2022-11-13T08:19:54.800Z,965.86
2022-11-13T08:22:21.116Z,965.94
2022-11-13T08:24:47.440Z,966.01
2022-11-13T08:27:13.768Z,965.81
2022-11-13T08:29:40.125Z,965.90
2022-11-13T08:32:06.444Z,965.95
2022-11-13T08:34:32.766Z,966.02
2022-11-13T08:36:59.142Z,965.90
2022-11-13T08:39:25.459Z,965.89
2022-11-13T08:41:51.785Z,965.89
2022-11-13T08:44:18.112Z,966.03
2022-11-13T08:46:44.433Z,965.97
2022-11-13T08:49:10.783Z,965.94
2022-11-13T08:51:37.102Z,966.10
2022-11-13T08:54:03.433Z,965.93
2022-11-13T08:56:29.754Z,965.99
2022-11-13T08:58:56.152Z,966.07
2022-11-13T09:01:22.525Z,966.04
2022-11-13T09:03:48.899Z,966.07
2022-11-13T09:06:15.214Z,966.04
2022-11-13T09:08:41.560Z,966.03
2022-11-13T09:11:07.901Z,966.07
2022-11-13T09:13:34.249Z,965.95
2022-11-13T09:16:00.611Z,966.04
2022-11-13T09:18:27.334Z,966.18
2022-11-13T09:20:53.269Z,966.04
2022-11-13T09:23:19.612Z,966.02
2022-11-13T09:25:45.936Z,966.09
2022-11-13T09:28:12.359Z,966.03
2022-11-13T09:30:38.762Z,965.99
2022-11-13T09:33:05.084Z,965.96
2022-11-13T09:35:31.457Z,965.90
2022-11-13T09:37:57.801Z,965.94
2022-11-13T09:40:24.196Z,965.95
2022-11-13T09:42:50.557Z,965.88
2022-11-13T09:45:16.878Z,965.95
2022-11-13T09:47:43.237Z,965.86
2022-11-13T09:50:09.582Z,965.83
2022-11-13T09:52:35.915Z,965.83
2022-11-13T09:55:02.261Z,965.80
2022-11-13T09:57:28.643Z,965.85
2022-11-13T09:59:54.989Z,965.75
2022-11-13T10:02:21.330Z,965.76
2022-11-13T10:04:47.757Z,965.78
2022-11-13T10:07:14.221Z,965.73
2022-11-13T10:09:40.488Z,965.83
2022-11-13T10:12:06.826Z,965.76
2022-11-13T10:14:33.154Z,965.66
2022-11-13T10:16:59.500Z,965.71
2022-11-13T10:19:25.880Z,965.68
2022-11-13T10:21:58.578Z,965.71
2022-11-13T10:24:18.531Z,965.60
2022-11-13T10:26:44.901Z,965.57
2022-11-13T10:29:11.355Z,965.58
2022-11-13T10:31:37.563Z,965.63
2022-11-13T10:34:03.923Z,965.61
2022-11-13T10:36:30.247Z,965.50
2022-11-13T10:38:56.593Z,965.52
2022-11-13T10:41:22.950Z,965.46
2022-11-13T10:43:49.273Z,965.48
2022-11-13T10:46:15.624Z,965.46
2022-11-13T10:48:41.987Z,965.43
2022-11-13T10:51:08.311Z,965.44
2022-11-13T10:53:34.665Z,965.47
2022-11-13T10:56:01.029Z,965.34
2022-11-13T10:58:27.781Z,965.42
2022-11-13T11:00:53.782Z,965.44
2022-11-13T11:03:20.089Z,965.39
2022-11-13T11:05:46.432Z,965.41
2022-11-13T11:08:12.812Z,965.27
2022-11-13T11:10:39.104Z,965.29
2022-11-13T11:13:05.454Z,965.26
2022-11-13T11:15:31.803Z,965.22
2022-11-13T11:17:58.137Z,965.20
2022-11-13T11:20:24.485Z,965.13
2022-11-13T11:22:50.799Z,965.17
2022-11-13T11:25:17.166Z,965.12
2022-11-13T11:27:43.475Z,965.04
2022-11-13T11:30:09.800Z,965.08
2022-11-13T11:32:36.118Z,965.06
2022-11-13T11:35:02.464Z,965.08
2022-11-13T11:37:28.846Z,965.04
2022-11-13T11:39:55.186Z,965.09
2022-11-13T11:42:21.521Z,965.03
2022-11-13T11:44:47.868Z,965.07
2022-11-13T11:47:14.207Z,965.00
2022-11-13T11:49:40.549Z,965.00
2022-11-13T11:52:06.865Z,965.00
2022-11-13T11:54:33.196Z,964.93
2022-11-13T11:56:59.561Z,964.88
2022-11-13T11:59:25.963Z,964.90
2022-11-13T12:01:52.323Z,964.89
2022-11-13T12:04:18.645Z,964.84
2022-11-13T12:06:45.061Z,964.88
2022-11-13T12:09:11.421Z,964.90
2022-11-13T12:11:37.761Z,964.86
2022-11-13T12:14:04.080Z,964.94
2022-11-13T12:16:30.411Z,964.83
2022-11-13T12:18:56.733Z,964.88
2022-11-13T12:21:23.075Z,964.86
2022-11-13T12:23:49.419Z,964.81
2022-11-13T12:26:15.753Z,964.81
2022-11-13T12:28:42.155Z,964.72
2022-11-13T12:31:08.491Z,964.66
2022-11-13T12:33:34.815Z,964.75
2022-11-13T12:36:01.197Z,964.69
2022-11-13T12:38:28.031Z,964.69
2022-11-13T12:40:53.850Z,964.76
2022-11-13T12:43:20.195Z,964.66
2022-11-13T12:45:46.520Z,964.66
2022-11-13T12:48:12.841Z,964.66
2022-11-13T12:50:39.262Z,964.72
2022-11-13T12:53:05.561Z,964.69
2022-11-13T12:55:31.897Z,964.70
2022-11-13T12:57:58.274Z,964.72
2022-11-13T13:00:24.635Z,964.66
2022-11-13T13:02:51.011Z,964.69
2022-11-13T13:05:17.385Z,964.63
2022-11-13T13:07:43.762Z,964.65
2022-11-13T13:10:10.141Z,964.64
2022-11-13T13:12:36.353Z,964.64
2022-11-13T13:15:02.681Z,964.65
2022-11-13T13:17:29.022Z,964.57
2022-11-13T13:19:55.357Z,964.58
2022-11-13T13:22:21.776Z,964.57
2022-11-13T13:24:48.077Z,964.60
2022-11-13T13:27:14.399Z,964.60
2022-11-13T13:29:40.723Z,964.59
2022-11-13T13:32:11.262Z,964.62
2022-11-13T13:34:35.208Z,964.58
2022-11-13T13:36:59.737Z,964.49
2022-11-13T13:39:26.082Z,964.49
2022-11-13T13:41:52.430Z,964.47
2022-11-13T13:44:18.766Z,964.49
2022-11-13T13:46:45.089Z,964.46
2022-11-13T13:49:11.425Z,964.51
2022-11-13T13:51:37.764Z,964.50
2022-11-13T13:54:04.107Z,964.51
2022-11-13T13:56:30.491Z,964.47
2022-11-13T13:58:56.830Z,964.45
2022-11-13T14:01:23.204Z,964.40
2022-11-13T14:03:49.474Z,964.47
2022-11-13T14:06:15.857Z,964.37
2022-11-13T14:08:42.224Z,964.42
2022-11-13T14:11:08.651Z,964.47
2022-11-13T14:13:34.986Z,964.42
2022-11-13T14:16:01.331Z,964.32
2022-11-13T14:18:27.735Z,964.34
2022-11-13T14:20:53.990Z,964.33
2022-11-13T14:23:20.333Z,964.31
2022-11-13T14:25:46.672Z,964.32
2022-11-13T14:28:13.022Z,964.39
2022-11-13T14:30:39.350Z,964.37
2022-11-13T14:33:05.689Z,964.35
2022-11-13T14:35:32.014Z,964.33
2022-11-13T14:37:58.341Z,964.29
2022-11-13T14:40:24.718Z,964.23
2022-11-13T14:42:51.056Z,964.28
2022-11-13T14:45:17.393Z,964.22
2022-11-13T14:47:43.764Z,964.23
2022-11-13T14:50:10.063Z,964.18
2022-11-13T14:52:36.412Z,964.25
2022-11-13T14:55:18.039Z,964.16
2022-11-13T14:57:29.072Z,964.17
2022-11-13T14:59:55.389Z,964.20
2022-11-13T15:02:21.719Z,964.15
2022-11-13T15:04:48.087Z,964.12
2022-11-13T15:07:14.556Z,964.11
2022-11-13T15:09:40.845Z,964.11
2022-11-13T15:12:07.240Z,964.11
2022-11-13T15:14:33.614Z,964.16
2022-11-13T15:16:59.932Z,964.13
2022-11-13T15:19:26.252Z,964.11
2022-11-13T15:22:25.304Z,964.07
2022-11-13T15:24:18.979Z,964.15
2022-11-13T15:26:45.305Z,964.09
2022-11-13T15:29:11.625Z,964.12
2022-11-13T15:31:37.971Z,964.05
2022-11-13T15:34:04.288Z,964.04
2022-11-13T15:36:30.613Z,964.04
2022-11-13T15:38:56.963Z,964.06
2022-11-13T15:41:23.284Z,964.00
2022-11-13T15:43:49.642Z,964.07
2022-11-13T15:46:15.946Z,964.09
2022-11-13T15:48:42.347Z,964.11
2022-11-13T15:51:08.721Z,964.09
2022-11-13T15:53:35.224Z,964.07
2022-11-13T15:58:04.202Z,964.11
2022-11-13T16:00:30.562Z,964.08
2022-11-13T16:02:56.904Z,964.06
2022-11-13T16:05:23.227Z,964.13
2022-11-13T16:07:49.562Z,964.14
2022-11-13T16:10:16.009Z,964.18
2022-11-13T16:12:42.360Z,964.23
2022-11-13T16:15:08.735Z,964.26
2022-11-13T16:17:35.049Z,964.20
2022-11-13T16:20:01.514Z,964.19
2022-11-13T16:22:27.812Z,964.22
2022-11-13T16:24:54.206Z,964.14
2022-11-13T16:27:20.610Z,964.18
2022-11-13T16:29:46.885Z,964.24
2022-11-13T16:32:13.244Z,964.31
2022-11-13T16:34:39.591Z,964.20
2022-11-13T16:37:05.906Z,964.21
2022-11-13T16:39:32.244Z,964.25
2022-11-13T16:41:58.561Z,964.20
2022-11-13T16:44:24.883Z,964.24
2022-11-13T16:46:51.223Z,964.19
2022-11-13T16:49:17.604Z,964.16
2022-11-13T16:51:43.940Z,964.21
2022-11-13T16:54:10.256Z,964.16
2022-11-13T16:56:36.579Z,964.28
2022-11-13T16:59:02.950Z,964.26
2022-11-13T17:01:29.292Z,964.23
2022-11-13T17:03:55.601Z,964.22
2022-11-13T17:06:21.938Z,964.27
2022-11-13T17:08:48.286Z,964.36
2022-11-13T17:11:14.610Z,964.28
2022-11-13T17:13:40.959Z,964.23
2022-11-13T17:16:07.301Z,964.27
2022-11-13T17:18:33.619Z,964.35
2022-11-13T17:20:59.959Z,964.32
2022-11-13T17:23:26.567Z,964.30
2022-11-13T17:25:52.637Z,964.30
2022-11-13T17:28:18.972Z,964.31
2022-11-13T17:30:45.363Z,964.37
2022-11-13T17:33:11.681Z,964.37
2022-11-13T17:35:38.036Z,964.31
2022-11-13T17:38:04.362Z,964.26
2022-11-13T17:40:30.683Z,964.26
2022-11-13T17:42:57.029Z,964.20
2022-11-13T17:45:23.343Z,964.27
2022-11-13T17:47:49.716Z,964.34
2022-11-13T17:50:16.102Z,964.40
2022-11-13T17:52:42.420Z,964.31
2022-11-13T17:55:08.757Z,964.17
2022-11-13T17:57:35.143Z,964.27
2022-11-13T18:00:01.472Z,964.18
2022-11-13T18:02:27.877Z,964.21
2022-11-13T18:04:54.185Z,964.25
2022-11-13T18:07:20.587Z,964.23
2022-11-13T18:09:46.858Z,964.26
2022-11-13T18:12:13.215Z,964.25
2022-11-13T18:14:39.555Z,964.15
2022-11-13T18:17:05.881Z,964.06
2022-11-13T18:19:32.193Z,964.06
2022-11-13T18:21:58.514Z,964.19
2022-11-13T18:24:24.940Z,964.15
2022-11-13T18:26:51.242Z,964.13
2022-11-13T18:29:17.557Z,964.19
2022-11-13T18:31:43.903Z,964.16
2022-11-13T18:34:10.245Z,964.06
2022-11-13T18:36:36.567Z,964.07
2022-11-13T18:39:02.886Z,964.15
2022-11-13T18:41:29.215Z,964.11
2022-11-13T18:43:55.567Z,963.99
2022-11-13T18:46:21.912Z,964.10
2022-11-13T18:48:48.242Z,964.12
2022-11-13T18:51:14.586Z,964.08
2022-11-13T18:53:40.893Z,964.13
2022-11-13T18:56:07.254Z,964.17
2022-11-13T18:58:33.570Z,964.15
2022-11-13T19:00:59.920Z,964.11
2022-11-13T19:03:26.506Z,964.15
2022-11-13T19:05:52.611Z,964.15
2022-11-13T19:08:18.948Z,964.26
2022-11-13T19:10:45.389Z,964.22
2022-11-13T19:13:11.699Z,964.20
2022-11-13T19:15:38.069Z,964.17
2022-11-13T19:18:04.371Z,964.22
2022-11-13T19:20:30.714Z,964.22
2022-11-13T19:22:57.050Z,964.28
2022-11-13T19:25:23.406Z,964.22
2022-11-13T19:27:49.728Z,964.25
2022-11-13T19:30:16.073Z,964.25
2022-11-13T19:32:42.442Z,964.29
2022-11-13T19:35:08.779Z,964.25
2022-11-13T19:37:35.093Z,964.19
2022-11-13T19:40:01.440Z,964.27
2022-11-13T19:42:27.760Z,964.27
2022-11-13T19:44:54.094Z,964.20
2022-11-13T19:47:20.409Z,964.28
2022-11-13T19:49:46.788Z,964.19
2022-11-13T19:52:13.127Z,964.18
2022-11-13T19:54:39.457Z,964.22
2022-11-13T19:57:05.905Z,964.25
2022-11-13T19:59:32.190Z,964.21
2022-11-13T20:01:58.548Z,964.22
2022-11-13T20:04:24.843Z,964.23
2022-11-13T20:06:51.243Z,964.26
2022-11-13T20:09:17.636Z,964.20
2022-11-13T20:11:43.948Z,964.18
2022-11-13T20:14:10.308Z,964.20
2022-11-13T20:16:36.644Z,964.25
2022-11-13T20:19:02.956Z,964.19
2022-11-13T20:21:29.310Z,964.11
2022-11-13T20:23:55.634Z,964.14
2022-11-13T20:26:21.946Z,964.10
2022-11-13T20:28:48.319Z,964.12
2022-11-13T20:31:14.636Z,964.10
2022-11-13T20:33:41.007Z,964.05
2022-11-13T20:36:07.381Z,964.07
2022-11-13T20:38:33.725Z,964.03
2022-11-13T20:41:00.060Z,964.08
2022-11-13T20:43:26.404Z,964.06
2022-11-13T20:45:52.729Z,964.03
2022-11-13T20:48:19.073Z,963.99
2022-11-13T20:50:45.409Z,964.06
2022-11-13T20:53:11.830Z,964.00
2022-11-13T20:55:38.221Z,964.01
2022-11-13T20:58:04.535Z,963.97
2022-11-13T21:00:30.906Z,963.99
2022-11-13T21:02:57.320Z,963.92
2022-11-13T21:05:23.632Z,963.96
2022-11-13T21:07:49.985Z,963.95
2022-11-13T21:10:16.306Z,963.97
2022-11-13T21:12:42.642Z,963.89
2022-11-13T21:15:09.001Z,963.90
2022-11-13T21:17:35.391Z,963.93
2022-11-13T21:20:01.719Z,963.96
2022-11-13T21:22:28.046Z,963.90
2022-11-13T21:24:54.383Z,963.99
2022-11-13T21:27:20.701Z,963.94
2022-11-13T21:29:47.072Z,963.95
2022-11-13T21:32:13.385Z,963.89
2022-11-13T21:34:39.732Z,963.91
2022-11-13T21:37:06.053Z,963.90
2022-11-13T21:39:32.369Z,963.96
2022-11-13T21:41:58.735Z,963.93
2022-11-13T21:44:25.006Z,963.91
2022-11-13T21:46:51.327Z,963.91
2022-11-13T21:49:17.734Z,963.94
2022-11-13T21:51:44.050Z,963.90
2022-11-13T21:54:10.504Z,963.93
2022-11-13T21:56:36.764Z,963.90
2022-11-13T21:59:03.075Z,963.96
2022-11-13T22:01:33.702Z,963.87
2022-11-13T22:03:55.809Z,963.87
2022-11-13T22:06:22.191Z,963.89
2022-11-13T22:08:48.526Z,963.90
2022-11-13T22:11:14.865Z,963.87
2022-11-13T22:13:41.218Z,963.84
2022-11-13T22:16:07.535Z,963.74
2022-11-13T22:18:33.886Z,963.76
2022-11-13T22:21:00.233Z,963.72
2022-11-13T22:23:26.596Z,963.74
2022-11-13T22:25:57.882Z,963.68
2022-11-13T22:28:19.402Z,963.66
2022-11-13T22:30:45.821Z,963.63
2022-11-13T22:33:12.156Z,963.62
2022-11-13T22:35:38.491Z,963.55
2022-11-13T22:38:04.810Z,963.61
2022-11-13T22:40:31.130Z,963.58
2022-11-13T22:42:57.474Z,963.56
2022-11-13T22:45:24.518Z,963.51
2022-11-13T22:47:50.167Z,963.53
2022-11-13T22:50:16.500Z,963.43
2022-11-13T22:52:42.867Z,963.41
2022-11-13T22:55:09.226Z,963.37
2022-11-13T22:57:35.516Z,963.40
2022-11-13T23:00:01.870Z,963.40
2022-11-13T23:02:28.226Z,963.43
2022-11-13T23:04:54.611Z,963.42
2022-11-13T23:07:20.977Z,963.35
2022-11-13T23:09:47.289Z,963.37
2022-11-13T23:12:13.654Z,963.41
2022-11-13T23:14:39.990Z,963.38
2022-11-13T23:17:06.325Z,963.31
2022-11-13T23:19:32.677Z,963.33
2022-11-13T23:21:58.989Z,963.35
2022-11-13T23:24:25.330Z,963.29
2022-11-13T23:26:51.680Z,963.28
2022-11-13T23:29:18.027Z,963.23
2022-11-13T23:31:44.387Z,963.21
2022-11-13T23:34:10.742Z,963.24
2022-11-13T23:36:37.084Z,963.19
2022-11-13T23:39:03.427Z,963.23
2022-11-13T23:41:29.789Z,963.22
2022-11-13T23:44:11.526Z,963.23
2022-11-13T23:46:22.485Z,963.17
2022-11-13T23:48:48.803Z,963.20
2022-11-13T23:51:15.159Z,963.20
2022-11-13T23:53:41.485Z,963.18
2022-11-13T23:56:07.826Z,963.20
2022-11-13T23:58:34.557Z,963.19
